createdAt,value
2023-05-07T00:01:18.068Z,100750.73
2023-05-07T00:03:45.466Z,100748.66
2023-05-07T00:06:13.804Z,100747.96
2023-05-07T00:08:40.648Z,100744.58
2023-05-07T00:11:07.552Z,100740.20
2023-05-07T00:13:36.696Z,100738.85
2023-05-07T00:16:04.572Z,100739.63
2023-05-07T00:18:31.612Z,100741.62
2023-05-07T00:20:58.743Z,100748.08
2023-05-07T00:23:25.623Z,100749.86
2023-05-07T00:25:52.553Z,100746.86
2023-05-07T00:28:19.421Z,100747.05
2023-05-07T00:30:46.236Z,100753.68
2023-05-07T00:33:13.038Z,100755.54
2023-05-07T00:35:39.939Z,100752.30
2023-05-07T00:38:06.838Z,100750.98
2023-05-07T00:40:33.825Z,100753.30
2023-05-07T00:43:01.132Z,100754.15
2023-05-07T00:45:28.749Z,100756.91
2023-05-07T00:47:57.071Z,100753.98
2023-05-07T00:50:24.091Z,100755.16
2023-05-07T00:52:50.939Z,100755.29
2023-05-07T00:55:17.781Z,100756.86
2023-05-07T00:57:44.805Z,100753.77
2023-05-07T01:00:14.102Z,100755.14
2023-05-07T01:02:41.698Z,100755.45
2023-05-07T01:05:10.636Z,100755.04
2023-05-07T01:07:38.355Z,100758.90
2023-05-07T01:10:06.893Z,100759.40
2023-05-07T01:12:33.902Z,100759.02
2023-05-07T01:15:00.916Z,100757.21
2023-05-07T01:17:27.817Z,100755.92
2023-05-07T01:19:55.644Z,100757.49
2023-05-07T01:22:33.625Z,100760.66
2023-05-07T01:25:02.752Z,100765.80
2023-05-07T01:27:30.194Z,100767.73
2023-05-07T01:29:57.095Z,100771.80
2023-05-07T01:32:49.404Z,100774.26
2023-05-07T01:35:21.325Z,100782.04
2023-05-07T01:37:48.689Z,100785.58
2023-05-07T01:40:15.556Z,100790.02
2023-05-07T01:42:43.294Z,100792.84
2023-05-07T01:45:11.080Z,100788.17
2023-05-07T01:47:38.399Z,100789.37
2023-05-07T01:50:07.441Z,100793.45
2023-05-07T01:52:34.668Z,100794.15
2023-05-07T01:55:01.535Z,100795.41
2023-05-07T01:57:28.650Z,100799.52
2023-05-07T01:59:55.959Z,100799.86
2023-05-07T02:02:23.141Z,100797.65
2023-05-07T02:04:51.282Z,100800.34
2023-05-07T02:07:18.926Z,100800.47
2023-05-07T02:09:46.046Z,100802.66
2023-05-07T02:12:13.153Z,100797.02
2023-05-07T02:14:40.039Z,100799.67
2023-05-07T02:17:07.145Z,100805.71
2023-05-07T02:19:34.025Z,100812.26
2023-05-07T02:22:02.240Z,100812.21
2023-05-07T02:24:31.339Z,100812.70
2023-05-07T02:26:58.416Z,100814.80
2023-05-07T02:29:26.410Z,100814.77
2023-05-07T02:31:54.230Z,100820.96
2023-05-07T02:34:21.212Z,100818.81
2023-05-07T02:36:48.223Z,100825.71
2023-05-07T02:39:18.012Z,100822.50
2023-05-07T02:41:44.868Z,100826.44
2023-05-07T02:44:12.016Z,100825.18
2023-05-07T02:46:39.284Z,100832.10
2023-05-07T02:49:09.062Z,100833.30
2023-05-07T02:51:36.167Z,100828.09
2023-05-07T02:54:03.897Z,100825.02
2023-05-07T02:56:31.554Z,100825.36
2023-05-07T02:58:58.960Z,100827.48
2023-05-07T03:01:27.805Z,100830.32
2023-05-07T03:04:02.434Z,100830.85
2023-05-07T03:06:29.386Z,100836.34
2023-05-07T03:08:56.238Z,100834.62
2023-05-07T03:11:23.131Z,100834.72
2023-05-07T03:13:50.726Z,100841.94
2023-05-07T03:16:18.356Z,100845.51
2023-05-07T03:18:45.468Z,100846.59
2023-05-07T03:21:12.458Z,100847.44
2023-05-07T03:23:39.945Z,100842.83
2023-05-07T03:26:06.742Z,100846.51
2023-05-07T03:28:33.804Z,100846.10
2023-05-07T03:31:02.526Z,100846.34
2023-05-07T03:33:30.526Z,100848.35
2023-05-07T03:35:57.522Z,100855.13
2023-05-07T03:38:25.432Z,100853.75
2023-05-07T03:40:52.353Z,100852.88
2023-05-07T03:43:19.247Z,100861.23
2023-05-07T03:45:50.470Z,100860.15
2023-05-07T03:48:21.376Z,100856.94
2023-05-07T03:50:49.003Z,100855.68
2023-05-07T03:53:16.424Z,100855.15
2023-05-07T03:55:43.414Z,100855.33
2023-05-07T03:58:10.408Z,100857.78
2023-05-07T04:00:39.598Z,100856.17
2023-05-07T04:03:14.130Z,100861.48
2023-05-07T04:05:41.389Z,100860.58
2023-05-07T04:08:08.314Z,100860.77
2023-05-07T04:10:40.442Z,100866.61
2023-05-07T04:13:10.568Z,100869.09
2023-05-07T04:15:37.641Z,100865.90
2023-05-07T04:18:07.797Z,100860.43
2023-05-07T04:20:37.408Z,100856.88
2023-05-07T04:23:05.434Z,100857.96
2023-05-07T04:25:32.845Z,100853.37
2023-05-07T04:28:07.154Z,100853.90
2023-05-07T04:30:34.328Z,100851.95
2023-05-07T04:33:03.176Z,100848.94
2023-05-07T04:35:30.598Z,100845.05
2023-05-07T04:37:58.624Z,100843.96
2023-05-07T04:40:25.747Z,100844.14
2023-05-07T04:42:54.170Z,100845.91
2023-05-07T04:45:22.102Z,100845.03
2023-05-07T04:47:49.018Z,100841.67
2023-05-07T04:50:16.101Z,100837.27
2023-05-07T04:52:43.451Z,100834.77
2023-05-07T04:55:11.043Z,100837.43
2023-05-07T04:57:41.866Z,100840.63
2023-05-07T05:00:11.140Z,100840.46
2023-05-07T05:02:38.659Z,100839.23
2023-05-07T05:05:07.004Z,100837.28
2023-05-07T05:07:33.972Z,100828.95
2023-05-07T05:10:00.914Z,100826.83
2023-05-07T05:12:27.861Z,100826.67
2023-05-07T05:14:55.294Z,100827.55
2023-05-07T05:17:22.205Z,100831.43
2023-05-07T05:19:49.094Z,100828.08
2023-05-07T05:22:16.389Z,100833.91
2023-05-07T05:24:43.426Z,100839.05
2023-05-07T05:27:10.302Z,100838.17
2023-05-07T05:29:37.401Z,100838.34
2023-05-07T05:32:04.522Z,100835.86
2023-05-07T05:34:31.730Z,100831.25
2023-05-07T05:37:00.318Z,100835.89
2023-05-07T05:39:27.368Z,100835.86
2023-05-07T05:41:54.267Z,100834.80
2023-05-07T05:44:21.750Z,100830.03
2023-05-07T05:46:50.702Z,100829.67
2023-05-07T05:49:17.782Z,100832.67
2023-05-07T05:51:44.929Z,100838.16
2023-05-07T05:54:12.468Z,100836.21
2023-05-07T05:56:39.370Z,100834.98
2023-05-07T05:59:06.464Z,100832.66
2023-05-07T06:01:34.193Z,100833.91
2023-05-07T06:04:02.339Z,100835.15
2023-05-07T06:06:30.159Z,100832.50
2023-05-07T06:08:57.256Z,100834.09
2023-05-07T06:11:31.644Z,100838.69
2023-05-07T06:13:58.655Z,100841.54
2023-05-07T06:16:26.749Z,100839.98
2023-05-07T06:18:53.606Z,100841.03
2023-05-07T06:21:20.624Z,100842.63
2023-05-07T06:23:48.415Z,100848.29
2023-05-07T06:26:15.418Z,100853.05
2023-05-07T06:28:43.780Z,100853.42
2023-05-07T06:31:24.204Z,100855.20
2023-05-07T06:33:58.014Z,100851.30
2023-05-07T06:36:28.297Z,100859.27
2023-05-07T06:38:56.724Z,100859.80
2023-05-07T06:41:23.590Z,100856.08
2023-05-07T06:43:50.550Z,100861.21
2023-05-07T06:46:28.357Z,100866.88
2023-05-07T06:48:55.418Z,100858.92
2023-05-07T06:51:22.254Z,100863.17
2023-05-07T06:53:49.612Z,100859.09
2023-05-07T06:56:16.432Z,100859.98
2023-05-07T06:58:43.662Z,100860.70
2023-05-07T07:01:10.986Z,100860.68
2023-05-07T07:03:38.196Z,100857.85
2023-05-07T07:06:05.582Z,100854.84
2023-05-07T07:08:34.552Z,100856.44
2023-05-07T07:11:02.142Z,100861.57
2023-05-07T07:13:32.498Z,100858.40
2023-05-07T07:15:59.792Z,100853.42
2023-05-07T07:18:26.861Z,100851.48
2023-05-07T07:20:54.495Z,100851.10
2023-05-07T07:23:21.595Z,100851.09
2023-05-07T07:25:48.833Z,100845.23
2023-05-07T07:28:15.700Z,100847.34
2023-05-07T07:30:42.798Z,100845.91
2023-05-07T07:33:10.759Z,100851.04
2023-05-07T07:35:38.534Z,100849.28
2023-05-07T07:38:06.403Z,100852.67
2023-05-07T07:40:35.498Z,100848.45
2023-05-07T07:43:02.966Z,100852.53
2023-05-07T07:45:30.287Z,100858.18
2023-05-07T07:47:57.206Z,100856.80
2023-05-07T07:50:36.074Z,100850.93
2023-05-07T07:53:10.502Z,100848.80
2023-05-07T07:55:41.261Z,100852.50
2023-05-07T07:58:08.335Z,100859.21
2023-05-07T08:00:35.451Z,100855.66
2023-05-07T08:03:04.324Z,100853.15
2023-05-07T08:05:34.056Z,100853.29
2023-05-07T08:08:00.939Z,100851.14
2023-05-07T08:10:30.931Z,100850.60
2023-05-07T08:13:05.137Z,100846.70
2023-05-07T08:15:32.459Z,100850.59
2023-05-07T08:18:01.389Z,100850.59
2023-05-07T08:20:29.819Z,100853.41
2023-05-07T08:22:57.528Z,100853.77
2023-05-07T08:25:24.895Z,100849.52
2023-05-07T08:27:51.963Z,100853.39
2023-05-07T08:30:18.978Z,100851.93
2023-05-07T08:32:46.098Z,100848.04
2023-05-07T08:35:13.084Z,100851.59
2023-05-07T08:37:40.080Z,100853.70
2023-05-07T08:40:10.220Z,100853.71
2023-05-07T08:42:39.067Z,100864.44
2023-05-07T08:45:10.606Z,100850.13
2023-05-07T08:47:47.595Z,100852.96
2023-05-07T08:50:15.646Z,100860.08
2023-05-07T08:52:43.096Z,100853.71
2023-05-07T08:55:11.533Z,100849.41
2023-05-07T08:57:40.147Z,100852.44
2023-05-07T09:00:09.360Z,100852.42
2023-05-07T09:02:38.097Z,100849.41
2023-05-07T09:05:06.545Z,100863.95
2023-05-07T09:07:33.993Z,100859.71
2023-05-07T09:10:05.583Z,100848.35
2023-05-07T09:12:33.235Z,100855.93
2023-05-07T09:15:01.210Z,100855.90
2023-05-07T09:17:29.508Z,100867.44
2023-05-07T09:19:56.632Z,100869.92
2023-05-07T09:22:23.539Z,100868.16
2023-05-07T09:24:56.057Z,100875.10
2023-05-07T09:27:26.270Z,100874.20
2023-05-07T09:29:53.925Z,100876.16
2023-05-07T09:32:20.955Z,100880.44
2023-05-07T09:34:48.533Z,100865.89
2023-05-07T09:37:15.836Z,100861.09
2023-05-07T09:39:47.637Z,100858.94
2023-05-07T09:42:18.328Z,100870.64
2023-05-07T09:44:46.101Z,100869.92
2023-05-07T09:47:19.661Z,100867.44
2023-05-07T09:49:49.136Z,100861.05
2023-05-07T09:52:18.903Z,100858.75
2023-05-07T09:54:49.526Z,100859.46
2023-05-07T09:57:17.385Z,100853.77
2023-05-07T09:59:46.113Z,100861.05
2023-05-07T10:02:15.485Z,100867.79
2023-05-07T10:04:48.357Z,100865.86
2023-05-07T10:07:17.524Z,100855.05
2023-05-07T10:09:48.845Z,100843.86
2023-05-07T10:12:23.463Z,100837.11
2023-05-07T10:14:50.988Z,100825.04
2023-05-07T10:17:24.703Z,100823.06
2023-05-07T10:19:52.215Z,100818.17
2023-05-07T10:22:19.276Z,100817.52
2023-05-07T10:24:46.520Z,100814.41
2023-05-07T10:27:16.003Z,100818.65
2023-05-07T10:30:07.842Z,100828.64
2023-05-07T10:32:47.209Z,100825.64
2023-05-07T10:35:24.357Z,100847.56
2023-05-07T10:37:51.870Z,100842.09
2023-05-07T10:40:21.589Z,100841.55
2023-05-07T10:43:15.344Z,100831.08
2023-05-07T10:46:19.666Z,100815.02
2023-05-07T10:49:04.546Z,100820.25
2023-05-07T10:52:17.491Z,100813.96
2023-05-07T10:55:21.131Z,100815.59
2023-05-07T10:57:57.552Z,100810.73
2023-05-07T11:03:01.510Z,100828.40
2023-05-07T11:05:43.081Z,100820.54
2023-05-07T11:08:24.355Z,100829.23
2023-05-07T11:10:59.750Z,100829.35
2023-05-07T11:13:46.236Z,100840.96
2023-05-07T11:16:34.131Z,100835.79
2023-05-07T11:19:09.678Z,100838.35
2023-05-07T11:21:42.591Z,100822.65
2023-05-07T11:24:18.633Z,100826.50
2023-05-07T11:26:52.741Z,100826.11
2023-05-07T11:29:23.968Z,100829.70
2023-05-07T11:31:56.433Z,100817.61
2023-05-07T11:34:26.236Z,100811.16
2023-05-07T11:36:54.214Z,100811.92
2023-05-07T11:39:32.579Z,100807.06
2023-05-07T11:42:03.326Z,100806.89
2023-05-07T11:44:44.290Z,100811.98
2023-05-07T11:47:13.789Z,100809.42
2023-05-07T11:49:41.832Z,100808.63
2023-05-07T11:52:09.033Z,100807.56
2023-05-07T11:54:38.055Z,100803.35
2023-05-07T11:57:05.392Z,100799.44
2023-05-07T11:59:39.824Z,100801.40
2023-05-07T12:02:07.686Z,100796.25
2023-05-07T12:04:34.756Z,100786.41
2023-05-07T12:07:03.505Z,100781.83
2023-05-07T12:09:30.932Z,100784.21
2023-05-07T12:14:16.972Z,100776.54
2023-05-07T12:16:44.084Z,100780.55
2023-05-07T12:19:15.731Z,100782.05
2023-05-07T12:21:43.072Z,100781.13
2023-05-07T12:24:10.088Z,100773.98
2023-05-07T12:26:41.836Z,100776.11
2023-05-07T12:29:46.628Z,100789.67
2023-05-07T12:32:15.399Z,100775.80
2023-05-07T12:34:45.292Z,100780.30
2023-05-07T12:37:13.273Z,100777.86
2023-05-07T12:39:49.440Z,100777.40
2023-05-07T12:42:17.063Z,100777.31
2023-05-07T12:44:46.397Z,100780.13
2023-05-07T12:47:13.419Z,100772.98
2023-05-07T12:49:41.431Z,100766.50
2023-05-07T12:52:08.295Z,100770.14
2023-05-07T12:54:37.599Z,100767.04
2023-05-07T12:57:08.650Z,100762.92
2023-05-07T12:59:42.076Z,100768.10
2023-05-07T13:02:09.336Z,100770.07
2023-05-07T13:04:37.814Z,100766.66
2023-05-07T13:07:05.010Z,100765.33
2023-05-07T13:09:31.820Z,100768.61
2023-05-07T13:12:01.888Z,100767.04
2023-05-07T13:14:29.196Z,100767.67
2023-05-07T13:16:56.362Z,100767.89
2023-05-07T13:19:23.281Z,100769.78
2023-05-07T13:21:50.332Z,100762.45
2023-05-07T13:24:17.068Z,100756.42
2023-05-07T13:26:46.018Z,100756.16
2023-05-07T13:29:13.417Z,100761.23
2023-05-07T13:31:43.294Z,100757.13
2023-05-07T13:34:11.079Z,100759.42
2023-05-07T13:36:40.150Z,100755.97
2023-05-07T13:39:07.076Z,100744.27
2023-05-07T13:41:34.191Z,100751.48
2023-05-07T13:44:01.038Z,100754.77
2023-05-07T13:46:28.093Z,100749.59
2023-05-07T13:48:55.133Z,100751.02
2023-05-07T13:51:22.461Z,100745.89
2023-05-07T13:53:49.330Z,100747.64
2023-05-07T13:56:16.290Z,100748.86
2023-05-07T13:58:56.432Z,100747.05
2023-05-07T14:01:26.809Z,100745.92
2023-05-07T14:03:54.094Z,100748.21
2023-05-07T14:06:22.332Z,100746.92
2023-05-07T14:08:49.556Z,100746.70
2023-05-07T14:11:16.597Z,100752.17
2023-05-07T14:13:46.015Z,100756.25
2023-05-07T14:16:12.938Z,100748.39
2023-05-07T14:18:39.902Z,100748.85
2023-05-07T14:21:07.557Z,100745.90
2023-05-07T14:23:34.740Z,100743.54
2023-05-07T14:26:01.668Z,100746.02
2023-05-07T14:28:28.918Z,100738.74
2023-05-07T14:30:55.893Z,100734.65
2023-05-07T14:33:24.062Z,100734.17
2023-05-07T14:35:51.469Z,100739.23
2023-05-07T14:38:18.513Z,100735.54
2023-05-07T14:40:45.549Z,100737.16
2023-05-07T14:43:12.535Z,100736.25
2023-05-07T14:45:40.129Z,100741.16
2023-05-07T14:48:06.978Z,100743.28
2023-05-07T14:50:33.998Z,100746.61
2023-05-07T14:53:01.355Z,100749.59
2023-05-07T14:55:28.580Z,100752.52
2023-05-07T14:57:56.273Z,100750.86
2023-05-07T15:00:23.439Z,100754.70
2023-05-07T15:02:50.540Z,100755.13
2023-05-07T15:05:19.647Z,100759.23
2023-05-07T15:07:47.383Z,100762.60
2023-05-07T15:10:14.792Z,100765.23
2023-05-07T15:12:42.521Z,100768.74
2023-05-07T15:15:10.466Z,100760.36
2023-05-07T15:17:37.449Z,100757.28
2023-05-07T15:20:05.573Z,100759.55
2023-05-07T15:22:32.918Z,100756.54
2023-05-07T15:24:59.869Z,100757.45
2023-05-07T15:27:27.203Z,100757.84
2023-05-07T15:29:54.180Z,100764.91
2023-05-07T15:32:21.124Z,100763.30
2023-05-07T15:34:47.977Z,100765.88
2023-05-07T15:37:15.010Z,100763.06
2023-05-07T15:39:41.931Z,100760.23
2023-05-07T15:42:08.918Z,100757.95
2023-05-07T15:44:36.143Z,100763.91
2023-05-07T15:47:03.188Z,100761.94
2023-05-07T15:49:30.542Z,100762.61
2023-05-07T15:51:57.696Z,100763.61
2023-05-07T15:54:24.969Z,100762.79
2023-05-07T15:56:52.007Z,100761.02
2023-05-07T15:59:18.868Z,100757.55
2023-05-07T16:01:45.833Z,100756.47
2023-05-07T16:04:12.638Z,100762.29
2023-05-07T16:06:39.505Z,100756.05
2023-05-07T16:09:06.164Z,100755.52
2023-05-07T16:11:33.377Z,100753.95
2023-05-07T16:14:03.030Z,100761.50
2023-05-07T16:16:33.019Z,100762.98
2023-05-07T16:18:59.676Z,100761.98
2023-05-07T16:21:26.811Z,100761.20
2023-05-07T16:23:53.864Z,100754.67
2023-05-07T16:26:20.544Z,100755.48
2023-05-07T16:28:47.461Z,100757.15
2023-05-07T16:31:14.370Z,100759.59
2023-05-07T16:33:41.089Z,100758.27
2023-05-07T16:36:08.137Z,100764.81
2023-05-07T16:38:34.931Z,100769.03
2023-05-07T16:41:01.735Z,100770.88
2023-05-07T16:43:28.603Z,100771.13
2023-05-07T16:45:55.493Z,100773.81
2023-05-07T16:48:22.746Z,100774.98
2023-05-07T16:50:49.417Z,100776.86
2023-05-07T16:53:16.420Z,100775.49
2023-05-07T16:55:43.251Z,100772.68
2023-05-07T16:58:10.748Z,100775.89
2023-05-07T17:00:48.938Z,100780.20
2023-05-07T17:03:16.786Z,100779.49
2023-05-07T17:05:44.253Z,100773.80
2023-05-07T17:08:12.853Z,100777.72
2023-05-07T17:10:39.792Z,100778.98
2023-05-07T17:13:07.088Z,100779.16
2023-05-07T17:15:33.993Z,100781.10
2023-05-07T17:18:00.983Z,100778.42
2023-05-07T17:20:28.157Z,100775.20
2023-05-07T17:22:55.114Z,100773.79
2023-05-07T17:25:22.677Z,100776.13
2023-05-07T17:27:49.943Z,100780.31
2023-05-07T17:30:16.712Z,100783.39
2023-05-07T17:32:44.005Z,100786.27
2023-05-07T17:35:10.796Z,100787.94
2023-05-07T17:37:37.750Z,100793.48
2023-05-07T17:40:05.078Z,100793.01
2023-05-07T17:42:32.169Z,100791.60
2023-05-07T17:44:58.815Z,100797.79
2023-05-07T17:47:25.544Z,100799.95
2023-05-07T17:49:52.244Z,100801.06
2023-05-07T17:52:19.015Z,100808.77
2023-05-07T17:54:46.121Z,100803.27
2023-05-07T17:57:12.978Z,100802.91
2023-05-07T17:59:39.784Z,100803.47
2023-05-07T18:02:06.504Z,100805.27
2023-05-07T18:04:33.316Z,100805.63
2023-05-07T18:07:00.564Z,100810.98
2023-05-07T18:09:27.301Z,100808.33
2023-05-07T18:11:54.037Z,100811.40
2023-05-07T18:14:23.535Z,100811.23
2023-05-07T18:16:50.352Z,100810.70
2023-05-07T18:19:17.354Z,100809.27
2023-05-07T18:21:44.099Z,100806.29
2023-05-07T18:24:10.917Z,100809.02
2023-05-07T18:26:37.696Z,100811.70
2023-05-07T18:29:04.405Z,100810.29
2023-05-07T18:31:31.427Z,100806.16
2023-05-07T18:33:58.304Z,100806.34
2023-05-07T18:36:26.304Z,100807.41
2023-05-07T18:38:53.689Z,100811.15
2023-05-07T18:41:21.064Z,100816.30
2023-05-07T18:43:47.890Z,100809.02
2023-05-07T18:46:14.705Z,100809.73
2023-05-07T18:48:41.498Z,100809.55
2023-05-07T18:51:11.856Z,100809.73
2023-05-07T18:58:21.995Z,100821.19
2023-05-07T19:00:51.326Z,100812.48
2023-05-07T19:03:18.192Z,100811.61
2023-05-07T19:05:45.260Z,100812.13
2023-05-07T19:08:12.081Z,100806.78
2023-05-07T19:10:39.867Z,100808.40
2023-05-07T19:13:07.039Z,100804.34
2023-05-07T19:15:33.989Z,100807.54
2023-05-07T19:18:00.913Z,100808.63
2023-05-07T19:20:28.398Z,100809.87
2023-05-07T19:22:55.464Z,100806.14
2023-05-07T19:25:22.300Z,100797.60
2023-05-07T19:27:50.246Z,100803.47
2023-05-07T19:30:17.202Z,100797.45
2023-05-07T19:32:43.943Z,100803.17
2023-05-07T19:35:10.777Z,100799.43
2023-05-07T19:37:38.590Z,100800.70
2023-05-07T19:40:06.387Z,100794.73
2023-05-07T19:42:34.110Z,100799.90
2023-05-07T19:45:01.260Z,100802.08
2023-05-07T19:47:28.029Z,100797.11
2023-05-07T19:49:54.628Z,100792.13
2023-05-07T19:52:21.732Z,100797.10
2023-05-07T19:54:48.461Z,100791.95
2023-05-07T19:57:16.903Z,100796.57
2023-05-07T19:59:43.669Z,100798.39
2023-05-07T20:02:11.419Z,100800.49
2023-05-07T20:04:38.456Z,100798.36
2023-05-07T20:07:05.543Z,100800.66
2023-05-07T20:09:33.044Z,100801.73
2023-05-07T20:11:59.763Z,100802.05
2023-05-07T20:14:26.839Z,100804.55
2023-05-07T20:16:53.625Z,100806.91
2023-05-07T20:19:20.349Z,100803.55
2023-05-07T20:21:47.185Z,100819.75
2023-05-07T20:24:13.970Z,100819.19
2023-05-07T20:26:40.791Z,100822.17
2023-05-07T20:29:08.260Z,100828.91
2023-05-07T20:31:35.126Z,100821.50
2023-05-07T20:38:51.845Z,100829.89
2023-05-07T20:41:20.199Z,100828.52
2023-05-07T20:43:47.952Z,100832.21
2023-05-07T20:46:14.682Z,100833.96
2023-05-07T20:48:41.754Z,100838.21
2023-05-07T20:51:12.880Z,100839.27
2023-05-07T20:53:40.137Z,100837.86
2023-05-07T20:56:07.013Z,100831.50
2023-05-07T20:58:33.914Z,100825.51
2023-05-07T21:01:00.862Z,100827.10
2023-05-07T21:03:27.757Z,100835.80
2023-05-07T21:05:55.759Z,100821.04
2023-05-07T21:08:22.723Z,100829.41
2023-05-07T21:10:50.404Z,100834.88
2023-05-07T21:13:18.106Z,100831.33
2023-05-07T21:15:45.440Z,100835.95
2023-05-07T21:18:12.642Z,100827.09
2023-05-07T21:20:39.546Z,100828.90
2023-05-07T21:23:06.876Z,100841.02
2023-05-07T21:25:38.084Z,100836.61
2023-05-07T21:32:49.313Z,100855.89
2023-05-07T21:35:16.345Z,100855.36
2023-05-07T21:37:43.403Z,100846.70
2023-05-07T21:40:11.023Z,100861.27
2023-05-07T21:42:38.106Z,100858.62
2023-05-07T21:45:05.718Z,100863.57
2023-05-07T21:47:32.911Z,100869.81
2023-05-07T21:50:00.607Z,100863.77
2023-05-07T21:52:27.433Z,100867.52
2023-05-07T21:54:54.245Z,100880.33
2023-05-07T21:57:21.501Z,100875.39
2023-05-07T21:59:49.432Z,100878.43
2023-05-07T22:07:05.800Z,100874.05
2023-05-07T22:09:33.448Z,100874.41
2023-05-07T22:12:00.597Z,100875.30
2023-05-07T22:14:27.516Z,100868.39
2023-05-07T22:16:54.395Z,100873.70
2023-05-07T22:19:23.414Z,100874.94
2023-05-07T22:21:53.313Z,100880.46
2023-05-07T22:24:22.514Z,100889.20
2023-05-07T22:26:51.850Z,100889.55
2023-05-07T22:29:23.340Z,100882.80
2023-05-07T22:31:53.385Z,100889.36
2023-05-07T22:34:23.379Z,100885.10
2023-05-07T22:36:53.394Z,100889.19
2023-05-07T22:39:22.851Z,100890.98
2023-05-07T22:41:52.894Z,100890.09
2023-05-07T22:44:22.069Z,100886.70
2023-05-07T22:46:52.362Z,100896.81
2023-05-07T22:49:21.487Z,100899.48
2023-05-07T22:51:51.447Z,100902.16
2023-05-07T22:54:20.540Z,100907.17
2023-05-07T22:56:49.440Z,100905.08
2023-05-07T22:59:19.852Z,100906.51
2023-05-07T23:01:48.237Z,100908.66
2023-05-07T23:04:17.726Z,100906.52
2023-05-07T23:06:46.543Z,100911.48
2023-05-07T23:09:15.440Z,100909.34
2023-05-07T23:11:45.455Z,100903.46
2023-05-07T23:14:13.963Z,100904.17
2023-05-07T23:16:43.445Z,100900.98
2023-05-07T23:26:47.823Z,100887.23
2023-05-07T23:29:14.667Z,100884.75
2023-05-07T23:31:41.604Z,100885.45
2023-05-07T23:34:08.526Z,100881.02
2023-05-07T23:36:35.382Z,100881.37
2023-05-07T23:39:02.553Z,100882.64
2023-05-07T23:41:29.325Z,100881.95
2023-05-07T23:43:56.231Z,100882.68
2023-05-07T23:46:23.205Z,100879.84
2023-05-07T23:48:50.098Z,100877.72
2023-05-07T23:51:17.014Z,100878.79
2023-05-07T23:53:43.993Z,100878.25
2023-05-07T23:56:11.419Z,100874.70
2023-05-07T23:58:38.336Z,100877.75
